createdAt,value
2022-08-04T00:01:30.774Z,4.90
2022-08-04T00:04:05.497Z,3.80
2022-08-04T00:06:57.031Z,4.00
2022-08-04T00:09:32.076Z,4.00
2022-08-04T00:12:04.883Z,4.60
2022-08-04T00:14:36.871Z,4.07
2022-08-04T00:17:08.251Z,4.00
2022-08-04T00:19:45.840Z,3.90
2022-08-04T00:22:19.144Z,3.77
2022-08-04T00:24:48.431Z,3.80
2022-08-04T00:27:18.002Z,4.00
2022-08-04T00:29:48.531Z,3.90
2022-08-04T00:32:33.971Z,4.17
2022-08-04T00:35:06.523Z,4.70
2022-08-04T00:37:38.866Z,4.40
2022-08-04T00:40:25.091Z,4.57
2022-08-04T00:43:10.604Z,4.27
2022-08-04T00:46:16.572Z,4.13
2022-08-04T00:49:08.227Z,4.63
2022-08-04T00:52:31.325Z,4.10
2022-08-04T00:55:11.423Z,4.57
2022-08-04T00:58:07.551Z,4.37
2022-08-04T01:00:49.763Z,3.93
2022-08-04T01:03:30.740Z,5.10
2022-08-04T01:06:11.049Z,4.90
2022-08-04T01:08:51.296Z,4.30
2022-08-04T01:11:56.420Z,4.70
2022-08-04T01:14:45.718Z,3.70
2022-08-04T01:17:25.715Z,4.13
2022-08-04T01:20:07.105Z,4.47
2022-08-04T01:23:23.168Z,4.30
2022-08-04T01:26:57.872Z,4.80
2022-08-04T01:29:43.789Z,4.30
2022-08-04T01:32:25.825Z,4.63
2022-08-04T01:35:03.780Z,4.60
2022-08-04T01:37:50.358Z,4.67
2022-08-04T01:40:20.463Z,5.07
2022-08-04T01:42:54.339Z,4.60
2022-08-04T01:45:26.499Z,4.50
2022-08-04T01:47:57.207Z,4.90
2022-08-04T01:50:28.330Z,4.70
2022-08-04T01:52:57.634Z,4.87
2022-08-04T01:55:54.600Z,4.60
2022-08-04T01:58:21.084Z,4.97
2022-08-04T02:01:05.032Z,4.90
2022-08-04T02:04:20.036Z,5.20
2022-08-04T02:06:42.650Z,4.80
2022-08-04T02:09:18.670Z,5.20
2022-08-04T02:12:05.392Z,5.30
2022-08-04T02:14:54.181Z,5.00
2022-08-04T02:17:31.569Z,4.50
2022-08-04T02:20:10.546Z,5.00
2022-08-04T02:22:50.213Z,5.07
2022-08-04T02:25:26.045Z,5.10
2022-08-04T02:28:13.750Z,4.90
2022-08-04T02:30:52.047Z,4.87
2022-08-04T02:33:32.711Z,4.90
2022-08-04T02:36:07.317Z,6.73
2022-08-04T02:38:55.971Z,5.30
2022-08-04T02:41:28.318Z,5.27
2022-08-04T02:44:00.629Z,4.90
2022-08-04T02:46:31.526Z,4.80
2022-08-04T02:49:04.894Z,4.87
2022-08-04T02:51:37.500Z,4.77
2022-08-04T02:54:09.613Z,4.73
2022-08-04T02:56:41.183Z,5.10
2022-08-04T02:59:13.211Z,5.00
2022-08-04T03:01:57.079Z,5.13
2022-08-04T03:04:49.193Z,4.80
2022-08-04T03:08:14.411Z,4.43
2022-08-04T03:11:30.098Z,4.73
2022-08-04T03:14:44.977Z,4.47
2022-08-04T03:17:54.242Z,4.37
2022-08-04T03:21:21.925Z,5.57
2022-08-04T03:24:26.971Z,4.97
2022-08-04T03:27:24.241Z,5.70
2022-08-04T03:30:15.235Z,5.87
2022-08-04T03:33:20.036Z,4.80
2022-08-04T03:36:59.973Z,5.23
2022-08-04T03:40:22.485Z,5.00
2022-08-04T03:43:57.197Z,4.70
2022-08-04T03:47:29.860Z,4.97
2022-08-04T03:51:35.483Z,4.93
2022-08-04T03:54:49.857Z,5.40
2022-08-04T03:57:49.472Z,5.20
2022-08-04T04:00:20.435Z,5.13
2022-08-04T04:03:29.055Z,4.95
2022-08-04T04:06:43.380Z,5.10
2022-08-04T04:10:06.270Z,4.37
2022-08-04T04:13:30.112Z,5.73
2022-08-04T04:16:51.537Z,4.90
2022-08-04T04:19:58.633Z,6.10
2022-08-04T04:22:57.501Z,4.73
2022-08-04T04:25:40.943Z,5.10
2022-08-04T04:28:51.593Z,5.43
2022-08-04T04:31:55.666Z,4.30
2022-08-04T04:34:46.019Z,4.47
2022-08-04T04:37:25.437Z,4.40
2022-08-04T04:40:16.531Z,4.93
2022-08-04T04:43:15.311Z,5.33
2022-08-04T04:45:54.183Z,5.03
2022-08-04T04:48:37.818Z,5.23
2022-08-04T04:51:21.077Z,5.60
2022-08-04T04:53:59.996Z,5.03
2022-08-04T04:56:42.813Z,4.93
2022-08-04T04:59:19.802Z,5.40
2022-08-04T05:02:41.723Z,5.03
2022-08-04T05:05:30.858Z,4.57
2022-08-04T05:08:54.218Z,4.10
2022-08-04T05:14:31.347Z,3.97
2022-08-04T05:15:33.332Z,3.77
2022-08-04T05:18:05.098Z,3.80
2022-08-04T05:20:40.047Z,4.13
2022-08-04T05:23:15.249Z,3.60
2022-08-04T05:25:58.728Z,3.30
2022-08-04T05:28:37.871Z,3.53
2022-08-04T05:31:21.401Z,3.70
2022-08-04T05:33:56.861Z,3.50
2022-08-04T05:36:40.913Z,4.23
2022-08-04T05:39:17.123Z,4.30
2022-08-04T05:41:48.032Z,3.63
2022-08-04T05:44:27.595Z,4.37
2022-08-04T05:47:00.386Z,4.50
2022-08-04T05:49:30.345Z,3.97
2022-08-04T05:52:03.207Z,4.00
2022-08-04T05:54:34.786Z,3.83
2022-08-04T05:57:06.067Z,4.00
2022-08-04T05:59:39.190Z,3.97
2022-08-04T06:02:11.318Z,4.00
2022-08-04T06:04:42.991Z,4.03
2022-08-04T06:07:15.100Z,4.40
2022-08-04T06:09:44.672Z,3.90
2022-08-04T06:12:19.383Z,3.50
2022-08-04T06:14:53.020Z,3.83
2022-08-04T06:19:57.670Z,3.87
2022-08-04T06:20:23.265Z,3.93
2022-08-04T06:22:57.423Z,4.20
2022-08-04T06:25:32.891Z,4.10
2022-08-04T06:28:06.591Z,3.80
2022-08-04T06:30:37.184Z,3.30
2022-08-04T06:33:24.593Z,3.70
2022-08-04T06:35:55.417Z,3.60
2022-08-04T06:38:26.899Z,3.10
2022-08-04T06:40:57.919Z,4.33
2022-08-04T06:43:29.618Z,3.70
2022-08-04T06:46:03.421Z,3.63
2022-08-04T06:48:34.493Z,3.50
2022-08-04T06:51:27.924Z,3.83
2022-08-04T06:53:54.187Z,3.77
2022-08-04T06:56:25.173Z,3.97
2022-08-04T06:58:55.911Z,3.40
2022-08-04T07:01:27.244Z,3.97
2022-08-04T07:03:58.262Z,3.73
2022-08-04T07:06:27.626Z,4.00
2022-08-04T07:08:57.196Z,3.40
2022-08-04T07:11:27.414Z,3.57
2022-08-04T07:13:57.809Z,3.77
2022-08-04T07:16:30.775Z,3.90
2022-08-04T07:19:10.305Z,3.47
2022-08-04T07:22:17.985Z,3.40
2022-08-04T07:24:57.855Z,3.70
2022-08-04T07:27:48.478Z,3.63
2022-08-04T07:30:21.827Z,3.67
2022-08-04T07:32:55.659Z,3.53
2022-08-04T07:36:05.327Z,3.87
2022-08-04T07:38:17.741Z,3.23
2022-08-04T07:40:48.635Z,3.17
2022-08-04T07:43:18.769Z,3.80
2022-08-04T07:45:48.298Z,3.23
2022-08-04T07:48:18.879Z,2.97
2022-08-04T07:50:49.985Z,3.40
2022-08-04T07:53:54.465Z,3.37
2022-08-04T07:56:09.898Z,3.50
2022-08-04T07:58:39.276Z,3.90
2022-08-04T08:01:10.495Z,3.10
2022-08-04T08:03:40.386Z,3.27
2022-08-04T08:06:30.902Z,3.33
2022-08-04T08:09:12.696Z,3.53
2022-08-04T08:12:35.645Z,3.23
2022-08-04T08:14:35.057Z,3.10
2022-08-04T08:17:04.850Z,3.63
2022-08-04T08:19:35.578Z,2.90
2022-08-04T08:22:06.988Z,3.43
2022-08-04T08:24:38.111Z,3.20
2022-08-04T08:27:08.723Z,3.57
2022-08-04T08:29:43.927Z,3.70
2022-08-04T08:32:16.398Z,3.40
2022-08-04T08:34:46.300Z,3.60
2022-08-04T08:37:25.954Z,3.20
2022-08-04T08:40:03.336Z,4.00
2022-08-04T08:44:06.598Z,3.53
2022-08-04T08:46:49.286Z,3.57
2022-08-04T08:50:07.630Z,3.23
2022-08-04T08:53:03.238Z,3.73
2022-08-04T08:55:50.194Z,3.53
2022-08-04T08:58:35.390Z,3.60
2022-08-04T09:01:16.527Z,3.17
2022-08-04T09:04:44.253Z,3.33
2022-08-04T09:07:29.500Z,3.47
2022-08-04T09:10:13.585Z,3.40
2022-08-04T09:12:52.057Z,2.87
2022-08-04T09:15:31.987Z,2.50
2022-08-04T09:18:07.589Z,3.10
2022-08-04T09:20:41.878Z,3.00
2022-08-04T09:23:22.027Z,3.60
2022-08-04T09:26:01.249Z,3.67
2022-08-04T09:28:53.471Z,3.63
2022-08-04T09:31:51.719Z,3.23
2022-08-04T09:34:33.446Z,3.30
2022-08-04T09:37:13.394Z,3.53
2022-08-04T09:39:52.618Z,3.10
2022-08-04T09:42:32.673Z,3.20
2022-08-04T09:45:11.740Z,3.10
2022-08-04T09:47:54.583Z,3.00
2022-08-04T09:50:36.377Z,2.80
2022-08-04T09:53:29.406Z,3.20
2022-08-04T09:56:09.951Z,3.40
2022-08-04T09:59:02.495Z,3.10
2022-08-04T10:01:32.803Z,3.17
2022-08-04T10:04:04.825Z,3.20
2022-08-04T10:07:10.593Z,2.50
2022-08-04T10:09:58.738Z,2.80
2022-08-04T10:12:53.937Z,2.83
2022-08-04T10:15:33.863Z,3.00
2022-08-04T10:18:20.029Z,2.53
2022-08-04T10:21:11.602Z,2.90
2022-08-04T10:24:33.669Z,3.20
2022-08-04T10:27:17.805Z,4.10
2022-08-04T10:29:48.552Z,2.97
2022-08-04T10:32:26.791Z,3.10
2022-08-04T10:35:10.129Z,3.07
2022-08-04T10:37:59.814Z,3.23
2022-08-04T10:40:39.761Z,2.90
2022-08-04T10:43:22.793Z,2.90
2022-08-04T10:45:59.124Z,2.60
2022-08-04T10:48:42.812Z,2.63
2022-08-04T10:51:57.264Z,2.83
2022-08-04T10:54:32.898Z,2.83
2022-08-04T10:57:09.173Z,2.73
2022-08-04T10:59:47.169Z,3.10
2022-08-04T11:02:30.958Z,2.77
2022-08-04T11:05:16.601Z,2.60
2022-08-04T11:07:49.104Z,2.30
2022-08-04T11:10:22.070Z,2.93
2022-08-04T11:13:03.253Z,2.83
2022-08-04T11:15:39.560Z,2.33
2022-08-04T11:18:17.215Z,2.27
2022-08-04T11:20:57.435Z,2.40
2022-08-04T11:23:34.860Z,2.70
2022-08-04T11:26:13.359Z,2.77
2022-08-04T11:29:03.890Z,3.10
2022-08-04T11:31:37.491Z,2.80
2022-08-04T11:34:19.318Z,2.67
2022-08-04T11:37:00.400Z,3.40
2022-08-04T11:39:35.488Z,3.10
2022-08-04T11:42:14.270Z,2.60
2022-08-04T11:44:49.126Z,3.00
2022-08-04T11:47:30.949Z,2.93
2022-08-04T11:50:06.871Z,3.23
2022-08-04T11:52:41.503Z,3.10
2022-08-04T11:55:13.170Z,2.53
2022-08-04T11:57:42.596Z,3.57
2022-08-04T12:00:16.126Z,2.93
2022-08-04T12:03:09.920Z,3.10
2022-08-04T12:05:55.233Z,2.67
2022-08-04T12:08:45.604Z,2.53
2022-08-04T12:11:36.275Z,2.77
2022-08-04T12:14:23.801Z,2.60
2022-08-04T12:17:01.652Z,2.97
2022-08-04T12:20:04.298Z,3.10
2022-08-04T12:22:32.089Z,3.00
2022-08-04T12:25:06.980Z,2.70
2022-08-04T12:27:43.398Z,3.13
2022-08-04T12:30:57.732Z,4.30
2022-08-04T12:33:10.743Z,3.37
2022-08-04T12:36:10.422Z,2.63
2022-08-04T12:38:50.441Z,2.87
2022-08-04T12:41:25.979Z,2.60
2022-08-04T12:43:56.425Z,2.83
2022-08-04T12:46:28.529Z,3.00
2022-08-04T12:49:05.138Z,3.03
2022-08-04T12:52:08.398Z,3.00
2022-08-04T12:54:32.240Z,2.40
2022-08-04T12:57:05.878Z,2.50
2022-08-04T12:59:40.605Z,2.47
2022-08-04T13:02:18.252Z,2.73
2022-08-04T13:04:50.400Z,3.10
2022-08-04T13:07:25.125Z,2.67
2022-08-04T13:09:55.368Z,2.87
2022-08-04T13:12:32.355Z,2.40
2022-08-04T13:15:17.960Z,3.27
2022-08-04T13:17:57.184Z,2.90
2022-08-04T13:20:31.960Z,2.70
2022-08-04T13:23:09.764Z,3.30
2022-08-04T13:28:42.931Z,2.50
2022-08-04T13:30:24.378Z,2.83
2022-08-04T13:31:17.315Z,3.10
2022-08-04T13:33:50.422Z,3.00
2022-08-04T13:36:25.263Z,2.83
2022-08-04T13:38:59.647Z,3.40
2022-08-04T13:41:31.429Z,3.10
2022-08-04T13:44:17.520Z,3.00
2022-08-04T13:46:53.881Z,2.90
2022-08-04T13:49:48.369Z,2.90
2022-08-04T13:52:12.754Z,3.30
2022-08-04T13:54:44.413Z,3.33
2022-08-04T13:57:19.714Z,3.10
2022-08-04T13:59:57.020Z,3.10
2022-08-04T14:02:35.201Z,2.70
2022-08-04T14:05:18.450Z,3.13
2022-08-04T14:07:52.772Z,2.80
2022-08-04T14:10:22.168Z,2.80
2022-08-04T14:12:53.780Z,3.13
2022-08-04T14:16:02.195Z,2.80
2022-08-04T14:18:32.089Z,2.80
2022-08-04T14:21:08.281Z,2.53
2022-08-04T14:23:50.617Z,2.80
2022-08-04T14:26:38.253Z,2.90
2022-08-04T14:29:27.204Z,3.10
2022-08-04T14:32:10.516Z,3.00
2022-08-04T14:34:46.221Z,2.87
2022-08-04T14:37:20.539Z,2.93
2022-08-04T14:40:08.963Z,2.77
2022-08-04T14:42:55.830Z,3.30
2022-08-04T14:45:35.861Z,3.00
2022-08-04T14:48:11.099Z,2.93
2022-08-04T14:50:42.888Z,3.07
2022-08-04T14:53:14.682Z,3.03
2022-08-04T14:55:49.557Z,3.07
2022-08-04T14:58:32.513Z,3.10
2022-08-04T15:01:11.466Z,3.50
2022-08-04T15:03:50.105Z,3.20
2022-08-04T15:06:25.617Z,3.03
2022-08-04T15:08:57.949Z,3.10
2022-08-04T15:11:27.933Z,3.20
2022-08-04T15:13:59.387Z,3.03
2022-08-04T15:16:31.318Z,3.00
2022-08-04T15:19:03.078Z,2.90
2022-08-04T15:21:32.815Z,3.60
2022-08-04T15:24:02.210Z,2.97
2022-08-04T15:26:38.157Z,3.10
2022-08-04T15:29:16.605Z,3.03
2022-08-04T15:32:04.321Z,3.20
2022-08-04T15:34:49.845Z,3.17
2022-08-04T15:37:30.621Z,3.43
2022-08-04T15:40:07.349Z,3.00
2022-08-04T15:42:47.707Z,3.30
2022-08-04T15:46:37.393Z,3.37
2022-08-04T15:48:34.526Z,2.93
2022-08-04T15:51:16.861Z,2.90
2022-08-04T15:54:27.792Z,3.00
2022-08-04T15:57:01.612Z,3.13
2022-08-04T16:00:02.043Z,3.20
2022-08-04T16:02:44.683Z,3.30
2022-08-04T16:05:42.507Z,3.20
2022-08-04T16:08:18.149Z,3.10
2022-08-04T16:10:50.614Z,3.83
2022-08-04T16:13:24.151Z,2.50
2022-08-04T16:15:55.979Z,2.50
2022-08-04T16:18:43.929Z,2.80
2022-08-04T16:21:24.492Z,3.80
2022-08-04T16:24:11.448Z,3.10
2022-08-04T16:26:54.578Z,3.00
2022-08-04T16:29:41.786Z,2.80
2022-08-04T16:32:20.905Z,3.00
2022-08-04T16:34:58.806Z,3.23
2022-08-04T16:37:36.006Z,3.50
2022-08-04T16:40:37.796Z,3.07
2022-08-04T16:43:13.046Z,3.80
2022-08-04T16:45:53.745Z,3.40
2022-08-04T16:48:27.165Z,3.17
2022-08-04T16:51:06.021Z,3.30
2022-08-04T16:54:03.416Z,3.03
2022-08-04T16:56:35.801Z,3.50
2022-08-04T16:59:10.526Z,2.97
2022-08-04T17:01:46.943Z,3.03
2022-08-04T17:04:16.809Z,3.40
2022-08-04T17:06:47.764Z,3.03
2022-08-04T17:09:37.000Z,2.80
2022-08-04T17:12:17.867Z,3.40
2022-08-04T17:14:49.277Z,4.00
2022-08-04T17:17:24.485Z,3.10
2022-08-04T17:20:13.746Z,3.17
2022-08-04T17:22:43.245Z,3.20
2022-08-04T17:25:12.475Z,3.33
2022-08-04T17:28:19.918Z,3.43
2022-08-04T17:30:33.507Z,3.33
2022-08-04T17:33:03.067Z,2.93
2022-08-04T17:35:38.563Z,3.17
2022-08-04T17:38:08.229Z,3.33
2022-08-04T17:40:52.938Z,3.60
2022-08-04T17:44:03.290Z,3.00
2022-08-04T17:46:40.910Z,3.30
2022-08-04T17:49:21.800Z,3.10
2022-08-04T17:52:06.092Z,3.33
2022-08-04T17:54:43.277Z,2.90
2022-08-04T17:57:19.566Z,3.27
2022-08-04T17:59:57.514Z,2.83
2022-08-04T18:02:33.540Z,3.43
2022-08-04T18:05:06.888Z,4.03
2022-08-04T18:08:41.355Z,2.90
2022-08-04T18:10:51.978Z,3.20
2022-08-04T18:13:26.305Z,3.33
2022-08-04T18:16:04.707Z,3.70
2022-08-04T18:18:35.192Z,3.80
2022-08-04T18:21:07.694Z,3.63
2022-08-04T18:23:50.376Z,2.97
2022-08-04T18:26:23.606Z,3.60
2022-08-04T18:28:53.234Z,3.83
2022-08-04T18:31:23.706Z,5.17
2022-08-04T18:33:57.386Z,4.00
2022-08-04T18:36:34.923Z,4.17
2022-08-04T18:39:12.863Z,3.30
2022-08-04T18:42:00.994Z,3.80
2022-08-04T18:44:32.542Z,3.90
2022-08-04T18:47:22.482Z,3.30
2022-08-04T18:50:59.673Z,4.47
2022-08-04T18:52:45.742Z,5.60
2022-08-04T18:55:55.270Z,4.23
2022-08-04T18:58:07.299Z,4.80
2022-08-04T19:00:37.740Z,5.60
2022-08-04T19:03:16.411Z,4.87
2022-08-04T19:05:52.608Z,4.97
2022-08-04T19:08:33.136Z,4.47
2022-08-04T19:11:36.833Z,6.27
2022-08-04T19:13:58.266Z,8.90
2022-08-04T19:16:29.177Z,6.90
2022-08-04T19:19:01.780Z,6.77
2022-08-04T19:22:01.590Z,6.63
2022-08-04T19:27:10.297Z,6.23
2022-08-04T19:29:43.198Z,6.80
2022-08-04T19:32:16.331Z,10.80
2022-08-04T19:34:48.270Z,10.63
2022-08-04T19:37:56.889Z,8.17
2022-08-04T19:40:12.921Z,7.20
2022-08-04T19:42:42.617Z,6.30
2022-08-04T19:45:15.751Z,6.80
2022-08-04T19:48:12.123Z,6.90
2022-08-04T19:50:36.202Z,8.00
2022-08-04T19:53:19.272Z,8.60
2022-08-04T19:55:50.335Z,7.90
2022-08-04T19:58:21.494Z,6.47
2022-08-04T20:00:55.732Z,9.30
2022-08-04T20:04:09.923Z,8.80
2022-08-04T20:06:15.678Z,7.40
2022-08-04T20:08:47.976Z,7.30
2022-08-04T20:11:20.535Z,7.20
2022-08-04T20:13:54.258Z,7.70
2022-08-04T20:16:29.373Z,7.90
2022-08-04T20:19:03.816Z,8.63
2022-08-04T20:21:53.486Z,8.17
2022-08-04T20:24:38.204Z,8.17
2022-08-04T20:27:15.927Z,7.80
2022-08-04T20:29:49.079Z,6.83
2022-08-04T20:32:21.847Z,7.10
2022-08-04T20:34:55.235Z,6.23
2022-08-04T20:38:00.091Z,6.80
2022-08-04T20:40:17.740Z,7.00
2022-08-04T20:42:50.476Z,6.33
2022-08-04T20:45:22.656Z,6.17
2022-08-04T20:47:53.287Z,6.43
2022-08-04T20:50:29.830Z,5.33
2022-08-04T20:53:00.965Z,5.20
2022-08-04T20:55:30.200Z,5.23
2022-08-04T20:58:02.635Z,6.23
2022-08-04T21:00:32.784Z,6.07
2022-08-04T21:03:01.989Z,6.27
2022-08-04T21:05:31.431Z,5.40
2022-08-04T21:08:02.461Z,6.27
2022-08-04T21:10:32.180Z,5.63
2022-08-04T21:13:01.436Z,5.53
2022-08-04T21:15:57.961Z,5.40
2022-08-04T21:18:29.068Z,5.30
2022-08-04T21:20:58.705Z,4.93
2022-08-04T21:23:29.242Z,5.03
2022-08-04T21:26:04.788Z,5.00
2022-08-04T21:28:39.875Z,5.20
2022-08-04T21:31:11.152Z,5.60
2022-08-04T21:33:52.078Z,5.10
2022-08-04T21:36:21.615Z,5.67
2022-08-04T21:38:52.755Z,5.40
2022-08-04T21:41:26.813Z,5.50
2022-08-04T21:43:58.909Z,5.87
2022-08-04T21:46:30.045Z,6.40
2022-08-04T21:48:59.852Z,7.00
2022-08-04T21:51:57.096Z,7.43
2022-08-04T21:54:25.618Z,7.80
2022-08-04T21:56:54.726Z,8.00
2022-08-04T21:59:31.009Z,9.27
2022-08-04T22:02:02.051Z,9.40
2022-08-04T22:04:31.819Z,8.10
2022-08-04T22:07:03.200Z,9.70
2022-08-04T22:09:40.921Z,8.97
2022-08-04T22:12:12.470Z,8.70
2022-08-04T22:14:42.201Z,9.00
2022-08-04T22:17:19.425Z,8.30
2022-08-04T22:19:55.367Z,8.73
2022-08-04T22:22:29.083Z,8.40
2022-08-04T22:25:06.153Z,8.20
2022-08-04T22:28:03.383Z,7.57
2022-08-04T22:30:37.073Z,7.77
2022-08-04T22:33:09.931Z,7.57
2022-08-04T22:35:48.657Z,7.43
2022-08-04T22:38:24.210Z,7.77
2022-08-04T22:41:01.845Z,7.03
2022-08-04T22:43:34.540Z,6.80
2022-08-04T22:46:07.004Z,6.80
2022-08-04T22:48:39.246Z,7.50
2022-08-04T22:51:13.161Z,5.83
2022-08-04T22:53:49.202Z,5.50
2022-08-04T22:56:37.289Z,5.90
2022-08-04T22:59:11.198Z,5.60
2022-08-04T23:01:57.904Z,5.83
2022-08-04T23:04:29.882Z,6.10
2022-08-04T23:06:59.349Z,6.17
2022-08-04T23:09:50.449Z,6.90
2022-08-04T23:12:25.589Z,7.07
2022-08-04T23:14:57.124Z,6.10
2022-08-04T23:17:27.338Z,6.40
2022-08-04T23:20:00.185Z,6.70
2022-08-04T23:22:42.361Z,7.03
2022-08-04T23:25:15.173Z,6.90
2022-08-04T23:27:51.699Z,7.20
2022-08-04T23:30:24.590Z,6.70
2022-08-04T23:32:59.404Z,6.83
2022-08-04T23:35:28.534Z,7.60
2022-08-04T23:38:00.020Z,6.20
2022-08-04T23:40:50.077Z,6.70
2022-08-04T23:43:20.893Z,6.23
2022-08-04T23:46:07.403Z,7.33
2022-08-04T23:48:40.458Z,7.37
2022-08-04T23:51:14.103Z,6.70
2022-08-04T23:54:02.393Z,6.77
2022-08-04T23:56:34.847Z,7.03
2022-08-04T23:59:05.299Z,6.57
